createdAt,value
2022-10-26T00:01:07.755Z,14.80
2022-10-26T00:03:38.763Z,15.65
2022-10-26T00:06:08.398Z,14.60
2022-10-26T00:08:36.043Z,21.80
2022-10-26T00:11:03.654Z,13.55
2022-10-26T00:13:30.785Z,14.82
2022-10-26T00:15:57.776Z,19.38
2022-10-26T00:18:25.388Z,16.20
2022-10-26T00:20:52.404Z,20.30
2022-10-26T00:23:19.785Z,16.48
2022-10-26T00:25:54.686Z,18.42
2022-10-26T00:28:22.022Z,18.30
2022-10-26T00:30:48.912Z,19.50
2022-10-26T00:33:16.098Z,19.58
2022-10-26T00:35:46.490Z,21.17
2022-10-26T00:38:13.798Z,17.92
2022-10-26T00:40:40.927Z,20.42
2022-10-26T00:43:38.785Z,18.67
2022-10-26T00:46:09.262Z,26.10
2022-10-26T00:48:41.143Z,20.55
2022-10-26T00:51:19.046Z,20.90
2022-10-26T00:53:47.183Z,18.17
2022-10-26T00:56:15.804Z,19.55
2022-10-26T00:58:43.617Z,22.98
2022-10-26T01:01:11.553Z,19.48
2022-10-26T01:03:39.562Z,31.02
2022-10-26T01:06:07.499Z,25.73
2022-10-26T01:08:34.979Z,23.85
2022-10-26T01:11:02.729Z,24.80
2022-10-26T01:13:33.810Z,24.20
2022-10-26T01:16:16.536Z,22.02
2022-10-26T01:18:55.229Z,21.70
2022-10-26T01:21:59.679Z,21.98
2022-10-26T01:24:58.948Z,26.17
2022-10-26T01:27:33.782Z,17.17
2022-10-26T01:30:25.338Z,15.60
2022-10-26T01:33:21.689Z,18.80
2022-10-26T01:36:09.742Z,17.25
2022-10-26T01:38:59.914Z,21.00
2022-10-26T01:41:32.813Z,16.27
2022-10-26T01:44:16.853Z,18.02
2022-10-26T01:46:46.765Z,20.27
2022-10-26T01:49:17.079Z,20.05
2022-10-26T01:51:47.209Z,15.93
2022-10-26T01:54:14.095Z,18.50
2022-10-26T01:56:44.972Z,16.77
2022-10-26T01:59:32.015Z,25.35
2022-10-26T02:02:30.144Z,17.35
2022-10-26T02:05:15.220Z,20.77
2022-10-26T02:07:57.681Z,18.30
2022-10-26T02:10:48.046Z,22.52
2022-10-26T02:13:30.290Z,15.02
2022-10-26T02:16:10.644Z,20.05
2022-10-26T02:18:55.516Z,16.42
2022-10-26T02:21:27.813Z,21.23
2022-10-26T02:23:57.262Z,20.65
2022-10-26T02:26:26.543Z,20.83
2022-10-26T02:28:57.775Z,19.45
2022-10-26T02:31:26.271Z,19.05
2022-10-26T02:33:57.165Z,16.90
2022-10-26T02:36:28.372Z,22.92
2022-10-26T02:38:58.752Z,22.63
2022-10-26T02:41:28.470Z,19.50
2022-10-26T02:44:26.725Z,26.83
2022-10-26T02:46:54.406Z,25.10
2022-10-26T02:49:21.972Z,22.67
2022-10-26T02:52:06.388Z,22.85
2022-10-26T02:54:36.395Z,24.73
2022-10-26T02:57:39.909Z,28.15
2022-10-26T03:02:37.553Z,27.58
2022-10-26T03:05:19.591Z,29.60
2022-10-26T03:07:46.451Z,25.33
2022-10-26T03:10:13.796Z,28.58
2022-10-26T03:12:40.702Z,28.25
2022-10-26T03:15:08.415Z,28.25
2022-10-26T03:17:35.350Z,25.25
2022-10-26T03:20:03.539Z,28.65
2022-10-26T03:22:30.681Z,31.40
2022-10-26T03:24:57.779Z,29.75
2022-10-26T03:27:24.732Z,31.10
2022-10-26T03:29:51.928Z,29.10
2022-10-26T03:32:18.989Z,27.98
2022-10-26T03:34:46.267Z,32.47
2022-10-26T03:37:13.135Z,32.20
2022-10-26T03:39:40.224Z,25.65
2022-10-26T03:42:07.142Z,32.92
2022-10-26T03:44:34.344Z,24.92
2022-10-26T03:47:01.185Z,34.58
2022-10-26T03:49:28.580Z,26.67
2022-10-26T03:51:55.533Z,27.52
2022-10-26T03:54:22.836Z,27.35
2022-10-26T03:56:52.717Z,31.40
2022-10-26T03:59:22.309Z,32.85
2022-10-26T04:01:52.680Z,30.98
2022-10-26T04:04:22.698Z,26.70
2022-10-26T04:06:49.709Z,26.38
2022-10-26T04:09:17.070Z,26.15
2022-10-26T04:11:44.121Z,29.00
2022-10-26T04:14:11.190Z,25.10
2022-10-26T04:16:38.085Z,27.95
2022-10-26T04:19:05.248Z,28.13
2022-10-26T04:21:33.185Z,30.55
2022-10-26T04:24:00.217Z,28.38
2022-10-26T04:26:27.385Z,23.73
2022-10-26T04:28:54.738Z,24.02
2022-10-26T04:31:21.762Z,22.85
2022-10-26T04:33:48.903Z,19.13
2022-10-26T04:36:15.846Z,21.60
2022-10-26T04:38:42.942Z,31.95
2022-10-26T04:41:09.896Z,26.35
2022-10-26T04:43:37.084Z,29.77
2022-10-26T04:46:04.001Z,27.75
2022-10-26T04:48:31.236Z,25.73
2022-10-26T04:51:01.922Z,24.77
2022-10-26T04:53:29.149Z,28.95
2022-10-26T04:56:00.892Z,32.72
2022-10-26T04:58:29.183Z,29.00
2022-10-26T05:00:56.467Z,28.15
2022-10-26T05:03:23.696Z,28.48
2022-10-26T05:05:50.774Z,24.83
2022-10-26T05:08:17.868Z,33.20
2022-10-26T05:10:51.401Z,30.65
2022-10-26T05:13:18.655Z,33.53
2022-10-26T05:15:45.604Z,27.98
2022-10-26T05:18:12.756Z,25.85
2022-10-26T05:20:39.867Z,29.45
2022-10-26T05:23:10.361Z,24.73
2022-10-26T05:25:38.658Z,27.55
2022-10-26T05:28:09.733Z,27.60
2022-10-26T05:30:36.882Z,18.63
2022-10-26T05:33:04.348Z,19.52
2022-10-26T05:35:32.768Z,23.73
2022-10-26T05:38:00.371Z,23.23
2022-10-26T05:40:27.921Z,22.58
2022-10-26T05:43:00.935Z,23.83
2022-10-26T05:45:28.537Z,21.17
2022-10-26T05:47:58.684Z,19.73
2022-10-26T05:50:28.781Z,26.55
2022-10-26T05:52:55.927Z,26.42
2022-10-26T05:55:23.625Z,25.75
2022-10-26T05:57:51.341Z,27.45
2022-10-26T06:00:22.492Z,24.85
2022-10-26T06:03:07.771Z,24.13
2022-10-26T06:05:54.574Z,25.13
2022-10-26T06:08:23.876Z,20.75
2022-10-26T06:10:51.532Z,45.72
2022-10-26T06:13:18.810Z,28.83
2022-10-26T06:16:12.152Z,25.63
2022-10-26T06:18:51.628Z,28.50
2022-10-26T06:21:39.840Z,21.30
2022-10-26T06:24:18.735Z,20.73
2022-10-26T06:27:15.700Z,20.75
2022-10-26T06:30:00.982Z,21.75
2022-10-26T06:32:29.020Z,22.48
2022-10-26T06:35:25.284Z,21.00
2022-10-26T06:37:54.289Z,21.10
2022-10-26T06:40:23.636Z,21.67
2022-10-26T06:42:51.202Z,17.00
2022-10-26T06:45:18.799Z,21.15
2022-10-26T06:48:12.075Z,23.88
2022-10-26T06:50:42.762Z,31.67
2022-10-26T06:53:35.406Z,20.02
2022-10-26T06:56:02.951Z,26.58
2022-10-26T06:58:34.888Z,29.08
2022-10-26T07:01:02.618Z,17.57
2022-10-26T07:03:29.711Z,23.63
2022-10-26T07:05:56.866Z,24.92
2022-10-26T07:08:24.400Z,23.10
2022-10-26T07:10:51.645Z,16.65
2022-10-26T07:13:18.505Z,19.05
2022-10-26T07:15:45.735Z,18.27
2022-10-26T07:18:12.803Z,15.48
2022-10-26T07:20:41.234Z,15.50
2022-10-26T07:23:12.756Z,17.88
2022-10-26T07:25:40.653Z,29.20
2022-10-26T07:28:10.548Z,19.23
2022-10-26T07:30:40.160Z,20.15
2022-10-26T07:33:09.371Z,24.25
2022-10-26T07:35:36.727Z,18.88
2022-10-26T07:38:04.507Z,26.65
2022-10-26T07:40:32.005Z,21.55
2022-10-26T07:43:00.739Z,24.42
2022-10-26T07:45:29.231Z,25.85
2022-10-26T07:47:56.720Z,21.45
2022-10-26T07:50:24.803Z,20.42
2022-10-26T07:52:52.602Z,17.70
2022-10-26T07:55:20.618Z,27.30
2022-10-26T07:57:49.806Z,27.95
2022-10-26T08:00:22.202Z,34.15
2022-10-26T08:02:49.241Z,39.95
2022-10-26T08:05:16.757Z,17.13
2022-10-26T08:07:44.745Z,19.40
2022-10-26T08:10:13.140Z,17.70
2022-10-26T08:12:40.757Z,17.00
2022-10-26T08:15:08.581Z,13.63
2022-10-26T08:17:35.781Z,12.48
2022-10-26T08:20:03.283Z,13.43
2022-10-26T08:22:30.883Z,15.48
2022-10-26T08:24:58.345Z,18.70
2022-10-26T08:27:25.336Z,14.45
2022-10-26T08:29:52.847Z,20.85
2022-10-26T08:32:19.916Z,16.40
2022-10-26T08:34:46.999Z,14.52
2022-10-26T08:37:13.980Z,16.25
2022-10-26T08:39:41.052Z,14.40
2022-10-26T08:42:17.084Z,15.45
2022-10-26T08:44:47.675Z,16.13
2022-10-26T08:47:29.341Z,17.55
2022-10-26T08:50:09.728Z,17.83
2022-10-26T08:52:43.919Z,20.67
2022-10-26T08:55:20.567Z,18.63
2022-10-26T08:57:50.181Z,21.77
2022-10-26T09:00:22.309Z,19.48
2022-10-26T09:05:45.717Z,20.58
2022-10-26T09:08:48.215Z,19.42
2022-10-26T09:11:51.385Z,24.10
2022-10-26T09:14:28.536Z,18.58
2022-10-26T09:17:23.246Z,17.83
2022-10-26T09:20:02.850Z,17.42
2022-10-26T09:22:50.980Z,21.17
2022-10-26T09:25:22.316Z,21.67
2022-10-26T09:27:58.210Z,20.83
2022-10-26T09:30:25.206Z,21.85
2022-10-26T09:32:58.153Z,19.48
2022-10-26T09:36:03.997Z,21.40
2022-10-26T09:38:34.533Z,19.40
2022-10-26T09:41:06.519Z,20.05
2022-10-26T09:43:50.653Z,17.85
2022-10-26T09:46:23.118Z,20.90
2022-10-26T09:48:58.535Z,21.35
2022-10-26T09:51:27.280Z,21.50
2022-10-26T09:53:57.436Z,24.27
2022-10-26T09:56:26.168Z,23.58
2022-10-26T09:58:59.709Z,25.33
2022-10-26T10:01:36.902Z,20.33
2022-10-26T10:04:12.871Z,22.65
2022-10-26T10:09:15.014Z,20.38
2022-10-26T10:11:58.044Z,23.50
2022-10-26T10:14:39.738Z,16.98
2022-10-26T10:19:44.374Z,19.25
2022-10-26T10:22:23.569Z,20.77
2022-10-26T10:24:58.105Z,20.63
2022-10-26T10:27:26.160Z,19.17
2022-10-26T10:30:01.633Z,17.45
2022-10-26T10:32:35.765Z,16.20
2022-10-26T10:35:24.942Z,20.95
2022-10-26T10:37:52.600Z,22.55
2022-10-26T10:40:23.244Z,21.85
2022-10-26T10:42:53.157Z,19.42
2022-10-26T10:45:26.131Z,18.95
2022-10-26T10:48:05.835Z,17.17
2022-10-26T10:50:36.467Z,21.13
2022-10-26T10:53:16.809Z,20.23
2022-10-26T10:55:53.092Z,19.50
2022-10-26T10:59:01.344Z,25.25
2022-10-26T11:01:40.936Z,21.52
2022-10-26T11:06:49.759Z,18.60
2022-10-26T11:09:21.823Z,16.70
2022-10-26T11:11:53.513Z,17.43
2022-10-26T11:14:31.816Z,16.55
2022-10-26T11:17:32.573Z,20.55
2022-10-26T11:20:04.005Z,18.00
2022-10-26T11:22:41.331Z,18.13
2022-10-26T11:25:24.407Z,19.65
2022-10-26T11:28:05.051Z,17.40
2022-10-26T11:30:36.448Z,19.70
2022-10-26T11:33:06.819Z,16.88
2022-10-26T11:35:50.866Z,18.77
2022-10-26T11:38:38.745Z,21.65
2022-10-26T11:41:40.230Z,19.75
2022-10-26T11:44:21.888Z,19.55
2022-10-26T11:46:55.473Z,19.00
2022-10-26T11:49:32.312Z,23.95
2022-10-26T11:52:28.272Z,19.52
2022-10-26T11:55:04.715Z,16.75
2022-10-26T11:57:37.083Z,18.05
2022-10-26T12:00:20.681Z,18.80
2022-10-26T12:03:15.261Z,17.88
2022-10-26T12:05:50.606Z,19.15
2022-10-26T12:08:37.646Z,17.02
2022-10-26T12:11:21.013Z,18.40
2022-10-26T12:13:54.899Z,18.35
2022-10-26T12:16:33.686Z,17.70
2022-10-26T12:19:06.674Z,16.20
2022-10-26T12:21:34.497Z,18.75
2022-10-26T12:24:22.723Z,21.85
2022-10-26T12:26:53.668Z,21.35
2022-10-26T12:29:23.559Z,23.15
2022-10-26T12:31:51.007Z,19.70
2022-10-26T12:34:30.176Z,20.45
2022-10-26T12:36:57.371Z,20.55
2022-10-26T12:39:38.386Z,22.42
2022-10-26T12:42:05.761Z,19.98
2022-10-26T12:44:38.707Z,19.73
2022-10-26T12:49:58.714Z,17.25
2022-10-26T12:52:48.221Z,22.88
2022-10-26T12:55:42.153Z,19.83
2022-10-26T12:58:17.974Z,19.25
2022-10-26T13:01:08.881Z,20.00
2022-10-26T13:04:14.504Z,20.13
2022-10-26T13:07:05.728Z,20.95
2022-10-26T13:09:33.299Z,20.52
2022-10-26T13:12:02.939Z,20.58
2022-10-26T13:14:38.768Z,21.33
2022-10-26T13:17:07.304Z,24.63
2022-10-26T13:19:47.162Z,20.63
2022-10-26T13:22:22.003Z,20.05
2022-10-26T13:24:56.368Z,21.05
2022-10-26T13:27:39.394Z,25.65
2022-10-26T13:30:09.761Z,23.65
2022-10-26T13:32:42.743Z,21.10
2022-10-26T13:35:14.653Z,20.52
2022-10-26T13:37:47.062Z,21.30
2022-10-26T13:40:18.916Z,19.80
2022-10-26T13:42:55.943Z,42.70
2022-10-26T13:45:43.554Z,30.05
2022-10-26T13:48:28.214Z,26.77
2022-10-26T13:53:41.241Z,21.92
2022-10-26T13:56:32.411Z,21.67
2022-10-26T13:59:05.877Z,22.70
2022-10-26T14:01:33.343Z,20.67
2022-10-26T14:04:14.112Z,23.13
2022-10-26T14:06:43.220Z,16.88
2022-10-26T14:09:15.655Z,21.98
2022-10-26T14:12:01.886Z,20.15
2022-10-26T14:14:33.051Z,19.52
2022-10-26T14:17:01.005Z,20.27
2022-10-26T14:19:34.342Z,25.20
2022-10-26T14:22:02.427Z,19.27
2022-10-26T14:24:46.228Z,16.50
2022-10-26T14:27:18.994Z,19.40
2022-10-26T14:29:58.361Z,19.70
2022-10-26T14:32:33.934Z,19.70
2022-10-26T14:35:01.055Z,25.45
2022-10-26T14:37:43.298Z,26.92
2022-10-26T14:40:17.782Z,24.60
2022-10-26T14:42:50.618Z,44.08
2022-10-26T14:45:36.402Z,51.92
2022-10-26T14:48:30.148Z,29.90
2022-10-26T14:51:17.017Z,27.73
2022-10-26T14:53:52.586Z,26.42
2022-10-26T14:56:34.538Z,21.80
2022-10-26T14:59:32.332Z,23.60
2022-10-26T15:02:11.176Z,25.85
2022-10-26T15:04:41.264Z,22.75
2022-10-26T15:07:20.591Z,22.85
2022-10-26T15:09:50.049Z,26.60
2022-10-26T15:12:23.076Z,29.33
2022-10-26T15:14:51.505Z,71.03
2022-10-26T15:17:34.269Z,47.97
2022-10-26T15:20:06.981Z,55.38
2022-10-26T15:22:34.574Z,55.15
2022-10-26T15:25:05.592Z,59.78
2022-10-26T15:27:32.814Z,45.17
2022-10-26T15:30:30.155Z,75.97
2022-10-26T15:32:57.172Z,85.10
2022-10-26T15:35:26.433Z,46.17
2022-10-26T15:37:55.635Z,40.50
2022-10-26T15:42:54.588Z,28.98
2022-10-26T15:45:23.084Z,28.08
2022-10-26T15:47:55.758Z,35.17
2022-10-26T15:50:26.107Z,49.40
2022-10-26T15:53:03.086Z,52.15
2022-10-26T15:55:30.976Z,37.65
2022-10-26T15:57:57.948Z,22.50
2022-10-26T16:00:25.073Z,20.10
2022-10-26T16:02:52.170Z,24.08
2022-10-26T16:05:19.343Z,31.30
2022-10-26T16:07:48.104Z,26.63
2022-10-26T16:10:23.639Z,27.75
2022-10-26T16:12:51.237Z,25.85
2022-10-26T16:15:23.772Z,29.58
2022-10-26T16:17:51.980Z,52.65
2022-10-26T16:20:24.320Z,90.03
2022-10-26T16:22:53.277Z,54.13
2022-10-26T16:25:23.794Z,52.60
2022-10-26T16:27:51.749Z,31.15
2022-10-26T16:30:20.080Z,39.50
2022-10-26T16:32:47.601Z,30.55
2022-10-26T16:35:15.111Z,29.08
2022-10-26T16:37:42.795Z,33.88
2022-10-26T16:40:10.408Z,35.22
2022-10-26T16:42:37.349Z,35.70
2022-10-26T16:45:04.942Z,41.85
2022-10-26T16:47:36.494Z,42.15
2022-10-26T16:50:04.495Z,40.05
2022-10-26T16:52:33.552Z,34.28
2022-10-26T16:55:00.654Z,27.80
2022-10-26T16:57:28.017Z,21.65
2022-10-26T16:59:55.242Z,24.67
2022-10-26T17:02:22.478Z,52.63
2022-10-26T17:04:49.880Z,54.47
2022-10-26T17:07:16.834Z,54.53
2022-10-26T17:09:43.869Z,77.97
2022-10-26T17:12:11.252Z,58.58
2022-10-26T17:14:38.639Z,53.10
2022-10-26T17:17:05.459Z,47.53
2022-10-26T17:19:32.631Z,53.78
2022-10-26T17:22:00.372Z,55.08
2022-10-26T17:24:28.879Z,38.65
2022-10-26T17:26:55.851Z,36.38
2022-10-26T17:29:23.229Z,28.02
2022-10-26T17:31:50.062Z,28.90
2022-10-26T17:34:17.531Z,28.55
2022-10-26T17:36:44.636Z,26.95
2022-10-26T17:39:12.028Z,26.38
2022-10-26T17:41:39.105Z,22.45
2022-10-26T17:44:06.482Z,23.77
2022-10-26T17:46:34.181Z,30.55
2022-10-26T17:49:01.662Z,25.65
2022-10-26T17:51:30.260Z,25.15
2022-10-26T17:53:59.001Z,37.50
2022-10-26T17:56:31.803Z,42.17
2022-10-26T17:59:01.405Z,39.40
2022-10-26T18:01:29.465Z,32.05
2022-10-26T18:03:56.798Z,37.35
2022-10-26T18:06:24.239Z,33.05
2022-10-26T18:08:51.445Z,40.65
2022-10-26T18:11:26.554Z,40.10
2022-10-26T18:13:57.778Z,34.92
2022-10-26T18:16:26.421Z,39.58
2022-10-26T18:19:02.859Z,43.80
2022-10-26T18:21:35.344Z,40.78
2022-10-26T18:24:02.481Z,47.73
2022-10-26T18:26:30.343Z,41.55
2022-10-26T18:28:59.372Z,42.85
2022-10-26T18:31:28.085Z,48.10
2022-10-26T18:34:00.186Z,45.22
2022-10-26T18:36:28.308Z,56.28
2022-10-26T18:38:56.364Z,56.53
2022-10-26T18:41:24.638Z,66.15
2022-10-26T18:43:54.428Z,50.58
2022-10-26T18:46:24.569Z,50.17
2022-10-26T18:48:52.296Z,56.00
2022-10-26T18:51:24.358Z,55.33
2022-10-26T18:53:51.723Z,51.60
2022-10-26T18:56:21.548Z,50.30
2022-10-26T18:58:50.907Z,49.70
2022-10-26T19:01:22.447Z,48.25
2022-10-26T19:03:58.366Z,43.65
2022-10-26T19:06:34.132Z,48.58
2022-10-26T19:09:01.643Z,48.03
2022-10-26T19:11:30.719Z,51.58
2022-10-26T19:13:58.108Z,49.40
2022-10-26T19:16:44.558Z,48.78
2022-10-26T19:19:14.007Z,49.90
2022-10-26T19:21:41.131Z,54.22
2022-10-26T19:24:13.553Z,49.00
2022-10-26T19:26:43.566Z,56.67
2022-10-26T19:29:15.372Z,56.85
2022-10-26T19:31:44.569Z,50.45
2022-10-26T19:34:13.023Z,52.10
2022-10-26T19:36:44.126Z,47.88
2022-10-26T19:39:11.890Z,58.13
2022-10-26T19:41:38.826Z,57.13
2022-10-26T19:44:07.842Z,59.95
2022-10-26T19:46:34.927Z,62.00
2022-10-26T19:49:03.075Z,63.78
2022-10-26T19:51:32.616Z,57.22
2022-10-26T19:54:03.932Z,62.17
2022-10-26T19:56:32.434Z,58.42
2022-10-26T19:59:00.206Z,53.88
2022-10-26T20:01:27.422Z,57.03
2022-10-26T20:03:54.850Z,50.25
2022-10-26T20:06:21.729Z,49.17
2022-10-26T20:08:49.663Z,49.05
2022-10-26T20:11:17.753Z,62.55
2022-10-26T20:13:46.278Z,57.92
2022-10-26T20:16:14.627Z,55.58
2022-10-26T20:18:45.725Z,55.13
2022-10-26T20:21:16.907Z,55.58
2022-10-26T20:23:45.230Z,50.40
2022-10-26T20:26:19.565Z,55.03
2022-10-26T20:28:53.502Z,52.03
2022-10-26T20:31:20.527Z,52.42
2022-10-26T20:33:52.726Z,56.03
2022-10-26T20:36:20.734Z,42.00
2022-10-26T20:38:48.249Z,41.05
2022-10-26T20:41:15.448Z,46.33
2022-10-26T20:43:42.944Z,43.42
2022-10-26T20:46:23.485Z,33.65
2022-10-26T20:48:51.580Z,40.67
2022-10-26T20:51:26.297Z,43.42
2022-10-26T20:54:19.862Z,37.33
2022-10-26T20:56:49.640Z,43.60
2022-10-26T20:59:28.077Z,38.90
2022-10-26T21:01:55.126Z,48.65
2022-10-26T21:04:22.326Z,31.55
2022-10-26T21:06:49.472Z,30.40
2022-10-26T21:09:16.630Z,33.88
2022-10-26T21:11:45.317Z,31.15
2022-10-26T21:14:12.478Z,35.30
2022-10-26T21:16:39.496Z,27.33
2022-10-26T21:19:08.458Z,35.20
2022-10-26T21:21:35.316Z,30.42
2022-10-26T21:24:02.834Z,28.63
2022-10-26T21:26:29.869Z,25.80
2022-10-26T21:28:57.381Z,36.92
2022-10-26T21:31:24.282Z,32.40
2022-10-26T21:33:51.350Z,44.75
2022-10-26T21:36:18.459Z,35.65
2022-10-26T21:38:45.839Z,28.60
2022-10-26T21:41:14.350Z,32.65
2022-10-26T21:43:46.058Z,72.38
2022-10-26T21:46:13.991Z,34.25
2022-10-26T21:48:41.171Z,43.47
2022-10-26T21:51:16.753Z,36.30
2022-10-26T21:53:44.473Z,36.83
2022-10-26T21:56:17.084Z,33.75
2022-10-26T21:58:44.971Z,30.33
2022-10-26T22:01:20.581Z,33.13
2022-10-26T22:03:48.842Z,29.73
2022-10-26T22:08:46.120Z,26.52
2022-10-26T22:11:16.077Z,29.70
2022-10-26T22:13:45.078Z,24.33
2022-10-26T22:16:23.782Z,22.65
2022-10-26T22:18:53.196Z,26.40
2022-10-26T22:21:21.821Z,31.00
2022-10-26T22:23:49.089Z,31.95
2022-10-26T22:26:18.875Z,32.97
2022-10-26T22:28:47.581Z,28.52
2022-10-26T22:31:17.729Z,27.25
2022-10-26T22:33:45.308Z,29.27
2022-10-26T22:36:14.342Z,40.97
2022-10-26T22:38:42.376Z,27.60
2022-10-26T22:41:10.627Z,26.92
2022-10-26T22:43:38.080Z,28.08
2022-10-26T22:46:07.756Z,22.25
2022-10-26T22:48:35.707Z,25.73
2022-10-26T22:51:07.169Z,29.98
2022-10-26T22:53:34.301Z,21.63
2022-10-26T22:56:02.171Z,21.95
2022-10-26T22:58:29.256Z,34.08
2022-10-26T23:01:06.775Z,29.60
2022-10-26T23:03:34.721Z,24.67
2022-10-26T23:06:02.003Z,48.05
2022-10-26T23:08:29.744Z,30.92
2022-10-26T23:11:01.583Z,20.85
2022-10-26T23:13:29.360Z,25.15
2022-10-26T23:15:56.998Z,27.85
2022-10-26T23:18:24.017Z,33.55
2022-10-26T23:20:51.813Z,24.48
2022-10-26T23:23:19.203Z,23.05
2022-10-26T23:25:46.227Z,26.38
2022-10-26T23:28:13.526Z,25.17
2022-10-26T23:30:40.496Z,27.65
2022-10-26T23:33:07.766Z,22.73
2022-10-26T23:35:34.680Z,22.90
2022-10-26T23:38:02.000Z,29.90
2022-10-26T23:40:28.914Z,27.63
2022-10-26T23:42:56.227Z,30.42
2022-10-26T23:45:23.569Z,34.63
2022-10-26T23:47:50.889Z,36.60
2022-10-26T23:50:18.218Z,36.35
2022-10-26T23:52:49.175Z,35.35
2022-10-26T23:55:16.644Z,38.28
2022-10-26T23:57:43.781Z,37.95
